createdAt,value
2023-03-18T00:02:30.197Z,87.77
2023-03-18T00:05:10.145Z,87.53
2023-03-18T00:08:04.116Z,87.82
2023-03-18T00:10:51.161Z,88.00
2023-03-18T00:13:31.206Z,88.06
2023-03-18T00:16:26.161Z,88.10
2023-03-18T00:19:20.163Z,87.86
2023-03-18T00:22:15.125Z,87.79
2023-03-18T00:25:02.144Z,88.13
2023-03-18T00:27:42.110Z,88.20
2023-03-18T00:30:29.285Z,88.60
2023-03-18T00:33:03.356Z,88.05
2023-03-18T00:35:54.144Z,88.10
2023-03-18T00:38:34.152Z,88.01
2023-03-18T00:41:28.153Z,88.54
2023-03-18T00:44:15.150Z,88.26
2023-03-18T00:46:55.216Z,88.46
2023-03-18T00:49:42.145Z,88.63
2023-03-18T00:52:15.271Z,88.66
2023-03-18T00:55:02.173Z,89.15
2023-03-18T00:57:37.305Z,88.91
2023-03-18T01:00:25.162Z,88.86
2023-03-18T01:02:59.453Z,88.41
2023-03-18T01:05:46.138Z,88.54
2023-03-18T01:08:19.321Z,88.49
2023-03-18T01:11:06.204Z,88.91
2023-03-18T01:13:41.259Z,88.96
2023-03-18T01:16:30.303Z,89.10
2023-03-18T01:19:04.462Z,88.80
2023-03-18T01:21:51.133Z,88.76
2023-03-18T01:24:31.163Z,88.97
2023-03-18T01:27:18.132Z,89.08
2023-03-18T01:29:51.858Z,88.84
2023-03-18T01:32:38.224Z,89.48
2023-03-18T01:35:12.481Z,88.95
2023-03-18T01:40:33.547Z,89.27
2023-03-18T01:43:23.159Z,89.45
2023-03-18T01:46:06.162Z,89.40
2023-03-18T01:48:53.173Z,89.47
2023-03-18T01:51:27.280Z,89.66
2023-03-18T01:54:15.157Z,89.51
2023-03-18T01:56:58.157Z,89.56
2023-03-18T01:59:55.186Z,89.76
2023-03-18T02:02:42.149Z,89.48
2023-03-18T02:05:18.275Z,89.87
2023-03-18T02:08:05.166Z,89.76
2023-03-18T02:10:39.729Z,89.81
2023-03-18T02:13:26.187Z,89.97
2023-03-18T02:16:04.271Z,90.08
2023-03-18T02:18:58.152Z,90.12
2023-03-18T02:22:06.309Z,89.93
2023-03-18T02:25:15.183Z,89.83
2023-03-18T02:28:02.202Z,89.97
2023-03-18T02:31:02.322Z,89.96
2023-03-18T02:33:50.143Z,90.18
2023-03-18T02:36:30.272Z,90.07
2023-03-18T02:39:22.164Z,90.33
2023-03-18T02:41:55.313Z,90.17
2023-03-18T02:44:47.188Z,90.64
2023-03-18T02:47:27.348Z,90.23
2023-03-18T02:50:14.182Z,90.23
2023-03-18T02:52:54.173Z,90.56
2023-03-18T02:55:48.175Z,90.53
2023-03-18T02:58:35.224Z,90.70
2023-03-18T03:01:15.261Z,90.57
2023-03-18T03:04:03.187Z,90.78
2023-03-18T03:06:58.200Z,90.74
2023-03-18T03:09:45.187Z,91.01
2023-03-18T03:12:18.268Z,90.78
2023-03-18T03:15:05.171Z,90.93
2023-03-18T03:17:38.296Z,90.86
2023-03-18T03:20:25.201Z,91.40
2023-03-18T03:22:58.376Z,91.06
2023-03-18T03:25:45.170Z,91.26
2023-03-18T03:28:27.211Z,91.84
2023-03-18T03:31:21.228Z,91.61
2023-03-18T03:34:09.182Z,91.46
2023-03-18T03:36:50.195Z,91.31
2023-03-18T03:39:37.211Z,91.60
2023-03-18T03:42:17.202Z,91.25
2023-03-18T03:45:12.181Z,91.53
2023-03-18T03:48:06.184Z,91.33
2023-03-18T03:50:54.187Z,91.60
2023-03-18T03:53:34.213Z,91.60
2023-03-18T03:56:28.195Z,91.75
2023-03-18T03:59:17.194Z,92.30
2023-03-18T04:01:57.200Z,91.98
2023-03-18T04:04:52.195Z,91.57
2023-03-18T04:07:39.202Z,91.84
2023-03-18T04:10:20.186Z,91.74
2023-03-18T04:13:07.292Z,91.88
2023-03-18T04:15:41.280Z,92.00
2023-03-18T04:18:28.210Z,92.08
2023-03-18T04:21:01.859Z,92.07
2023-03-18T04:23:48.182Z,92.45
2023-03-18T04:26:21.291Z,92.15
2023-03-18T04:29:08.183Z,91.61
2023-03-18T04:31:41.727Z,91.68
2023-03-18T04:34:29.203Z,91.95
2023-03-18T04:37:02.386Z,91.98
2023-03-18T04:39:49.204Z,92.20
2023-03-18T04:42:23.342Z,92.12
2023-03-18T04:45:12.231Z,91.79
2023-03-18T04:47:45.586Z,91.71
2023-03-18T04:50:32.466Z,91.96
2023-03-18T04:53:05.337Z,91.90
2023-03-18T04:55:52.255Z,91.88
2023-03-18T04:58:25.290Z,91.49
2023-03-18T05:01:12.235Z,91.72
2023-03-18T05:03:46.329Z,92.03
2023-03-18T05:06:42.195Z,91.77
2023-03-18T05:09:36.218Z,92.09
2023-03-18T05:12:23.204Z,92.13
2023-03-18T05:15:03.237Z,92.20
2023-03-18T05:17:57.249Z,91.76
2023-03-18T05:20:44.208Z,91.92
2023-03-18T05:23:17.451Z,91.66
2023-03-18T05:26:04.214Z,91.62
2023-03-18T05:28:39.214Z,91.38
2023-03-18T05:31:26.259Z,91.69
2023-03-18T05:34:00.409Z,91.38
2023-03-18T05:36:47.237Z,91.17
2023-03-18T05:39:20.353Z,91.09
2023-03-18T05:42:07.202Z,90.45
2023-03-18T05:44:40.512Z,90.26
2023-03-18T05:47:27.238Z,90.59
2023-03-18T05:50:01.656Z,90.26
2023-03-18T05:52:48.233Z,89.32
2023-03-18T05:55:23.452Z,88.34
2023-03-18T05:58:10.306Z,87.40
2023-03-18T06:00:51.211Z,87.21
2023-03-18T06:03:45.321Z,85.62
2023-03-18T06:06:33.219Z,84.53
2023-03-18T06:09:07.045Z,83.29
2023-03-18T06:11:54.238Z,82.27
2023-03-18T06:14:36.227Z,81.48
2023-03-18T06:17:23.281Z,79.53
2023-03-18T06:19:57.001Z,79.57
2023-03-18T06:22:43.233Z,78.45
2023-03-18T06:25:23.261Z,78.14
2023-03-18T06:28:10.235Z,76.46
2023-03-18T06:30:43.344Z,76.94
2023-03-18T06:33:32.226Z,75.18
2023-03-18T06:36:12.296Z,74.10
2023-03-18T06:39:00.273Z,73.50
2023-03-18T06:41:40.260Z,72.13
2023-03-18T06:44:35.273Z,69.58
2023-03-18T06:47:22.239Z,68.77
2023-03-18T06:49:56.880Z,68.88
2023-03-18T06:52:44.246Z,69.32
2023-03-18T06:55:24.255Z,68.42
2023-03-18T06:58:12.261Z,64.86
2023-03-18T07:00:47.776Z,65.39
2023-03-18T07:03:34.247Z,63.80
2023-03-18T07:06:14.236Z,62.80
2023-03-18T07:09:08.292Z,62.25
2023-03-18T07:11:55.278Z,61.40
2023-03-18T07:14:28.750Z,60.58
2023-03-18T07:17:17.256Z,58.68
2023-03-18T07:19:50.342Z,58.50
2023-03-18T07:22:37.284Z,57.86
2023-03-18T07:25:11.465Z,56.98
2023-03-18T07:27:58.264Z,55.80
2023-03-18T07:30:31.337Z,55.85
2023-03-18T07:33:18.245Z,53.83
2023-03-18T07:35:51.445Z,54.49
2023-03-18T07:38:38.271Z,53.82
2023-03-18T07:41:18.287Z,53.30
2023-03-18T07:44:12.267Z,52.10
2023-03-18T07:46:59.275Z,52.43
2023-03-18T07:49:32.385Z,52.40
2023-03-18T07:52:19.281Z,49.54
2023-03-18T07:54:52.528Z,50.30
2023-03-18T07:57:39.299Z,49.39
2023-03-18T08:00:14.399Z,48.28
2023-03-18T08:03:02.276Z,47.09
2023-03-18T08:05:35.454Z,48.22
2023-03-18T08:08:22.273Z,46.17
2023-03-18T08:10:55.366Z,47.14
2023-03-18T08:13:44.305Z,46.91
2023-03-18T08:16:18.620Z,46.89
2023-03-18T08:19:05.296Z,45.84
2023-03-18T08:21:38.507Z,46.76
2023-03-18T08:24:25.274Z,45.07
2023-03-18T08:26:58.426Z,44.98
2023-03-18T08:29:45.286Z,44.43
2023-03-18T08:32:21.980Z,42.61
2023-03-18T08:35:09.284Z,43.43
2023-03-18T08:37:42.690Z,42.64
2023-03-18T08:40:29.304Z,42.01
2023-03-18T08:43:02.374Z,42.89
2023-03-18T08:45:49.347Z,40.07
2023-03-18T08:48:29.288Z,39.06
2023-03-18T08:51:23.292Z,37.92
2023-03-18T08:54:10.322Z,36.59
2023-03-18T08:56:43.463Z,37.82
2023-03-18T08:59:30.320Z,35.44
2023-03-18T09:02:03.609Z,36.08
2023-03-18T09:04:57.327Z,33.70
2023-03-18T09:07:52.308Z,35.39
2023-03-18T09:10:40.312Z,34.91
2023-03-18T09:13:21.302Z,36.32
2023-03-18T09:16:08.386Z,33.54
2023-03-18T09:18:48.943Z,33.57
2023-03-18T09:21:42.319Z,33.60
2023-03-18T09:24:36.325Z,34.36
2023-03-18T09:27:30.325Z,33.74
2023-03-18T09:30:24.325Z,33.25
2023-03-18T09:33:13.361Z,31.70
2023-03-18T09:35:46.449Z,31.61
2023-03-18T09:38:33.329Z,31.00
2023-03-18T09:41:51.464Z,30.88
2023-03-18T09:44:43.324Z,32.27
2023-03-18T09:47:38.429Z,32.09
2023-03-18T09:50:50.344Z,31.96
2023-03-18T09:53:40.362Z,32.98
2023-03-18T09:56:52.346Z,31.89
2023-03-18T09:59:50.316Z,32.53
2023-03-18T10:02:49.469Z,31.61
2023-03-18T10:05:55.324Z,31.03
2023-03-18T10:09:13.331Z,31.40
2023-03-18T10:12:14.368Z,31.19
2023-03-18T10:14:53.465Z,31.96
2023-03-18T10:18:15.364Z,32.00
2023-03-18T10:21:10.535Z,31.97
2023-03-18T10:24:24.344Z,32.55
2023-03-18T10:27:12.471Z,33.79
2023-03-18T10:30:10.351Z,32.52
2023-03-18T10:33:05.395Z,32.81
2023-03-18T10:36:11.384Z,33.57
2023-03-18T10:39:01.346Z,34.39
2023-03-18T10:41:51.346Z,35.07
2023-03-18T10:44:45.316Z,33.80
2023-03-18T10:47:30.507Z,34.26
2023-03-18T10:50:30.667Z,34.49
2023-03-18T10:53:30.275Z,34.55
2023-03-18T10:56:19.364Z,33.69
2023-03-18T10:58:53.701Z,34.04
2023-03-18T11:01:43.438Z,33.98
2023-03-18T11:04:29.358Z,34.41
2023-03-18T11:07:31.368Z,35.12
2023-03-18T11:10:24.387Z,34.11
2023-03-18T11:13:02.369Z,34.09
2023-03-18T11:15:59.463Z,33.60
2023-03-18T11:18:42.365Z,33.96
2023-03-18T11:21:38.376Z,34.10
2023-03-18T11:24:42.408Z,34.83
2023-03-18T11:27:21.471Z,34.59
2023-03-18T11:30:34.849Z,34.14
2023-03-18T11:33:30.493Z,33.74
2023-03-18T11:36:27.405Z,33.60
2023-03-18T11:39:23.765Z,34.39
2023-03-18T11:42:24.420Z,33.78
2023-03-18T11:45:01.563Z,33.48
2023-03-18T11:47:50.388Z,33.25
2023-03-18T11:50:34.652Z,33.75
2023-03-18T11:53:55.386Z,33.60
2023-03-18T11:56:49.498Z,32.92
2023-03-18T11:59:36.374Z,33.40
2023-03-18T12:02:37.501Z,33.96
2023-03-18T12:06:00.365Z,33.54
2023-03-18T12:09:04.410Z,33.01
2023-03-18T12:12:03.387Z,33.27
2023-03-18T12:15:04.564Z,33.05
2023-03-18T12:18:13.399Z,32.71
2023-03-18T12:20:52.654Z,33.37
2023-03-18T12:23:45.396Z,32.93
2023-03-18T12:26:48.414Z,32.62
2023-03-18T12:29:54.411Z,32.26
2023-03-18T12:32:49.450Z,31.66
2023-03-18T12:35:58.751Z,31.18
2023-03-18T12:38:51.403Z,32.14
2023-03-18T12:41:30.942Z,32.37
2023-03-18T12:44:32.416Z,31.67
2023-03-18T12:47:25.478Z,31.37
2023-03-18T12:50:41.420Z,30.23
2023-03-18T12:53:40.433Z,31.08
2023-03-18T12:56:23.529Z,31.88
2023-03-18T12:59:19.480Z,31.60
2023-03-18T13:02:23.697Z,31.86
2023-03-18T13:05:27.425Z,31.52
2023-03-18T13:08:23.472Z,32.51
2023-03-18T13:11:42.408Z,32.04
2023-03-18T13:14:47.487Z,32.46
2023-03-18T13:17:36.428Z,32.66
2023-03-18T13:20:30.591Z,32.58
2023-03-18T13:23:39.474Z,33.17
2023-03-18T13:26:33.480Z,32.75
2023-03-18T13:29:42.980Z,32.94
2023-03-18T13:32:30.570Z,33.29
2023-03-18T13:36:03.519Z,33.79
2023-03-18T13:39:25.477Z,34.17
2023-03-18T13:42:36.420Z,34.50
2023-03-18T13:45:37.477Z,34.23
2023-03-18T13:48:51.564Z,34.42
2023-03-18T13:51:38.439Z,35.24
2023-03-18T13:54:26.446Z,34.88
2023-03-18T13:57:30.429Z,34.42
2023-03-18T14:00:35.481Z,34.43
2023-03-18T14:03:29.492Z,34.09
2023-03-18T14:06:23.471Z,34.67
2023-03-18T14:10:18.377Z,34.57
2023-03-18T14:13:41.474Z,34.44
2023-03-18T14:16:38.427Z,35.13
2023-03-18T14:19:41.475Z,33.84
2023-03-18T14:22:35.476Z,34.26
2023-03-18T14:25:37.288Z,34.10
2023-03-18T14:28:27.479Z,34.22
2023-03-18T14:31:19.642Z,34.30
2023-03-18T14:34:10.446Z,34.51
2023-03-18T14:36:59.480Z,34.48
2023-03-18T14:39:59.483Z,34.46
2023-03-18T14:43:07.478Z,35.02
2023-03-18T14:45:55.478Z,34.98
2023-03-18T14:48:49.479Z,35.12
2023-03-18T14:51:38.496Z,35.69
2023-03-18T14:54:18.603Z,35.83
2023-03-18T14:57:10.527Z,35.60
2023-03-18T14:59:45.668Z,36.07
2023-03-18T15:02:40.537Z,36.45
2023-03-18T15:05:14.695Z,36.60
2023-03-18T15:08:01.482Z,36.93
2023-03-18T15:10:44.515Z,37.06
2023-03-18T15:13:39.578Z,37.16
2023-03-18T15:16:26.559Z,37.47
2023-03-18T15:19:01.610Z,37.88
2023-03-18T15:21:48.514Z,38.18
2023-03-18T15:24:26.929Z,38.32
2023-03-18T15:27:21.492Z,38.50
2023-03-18T15:30:04.505Z,38.43
2023-03-18T15:32:58.577Z,38.66
2023-03-18T15:35:32.983Z,38.99
2023-03-18T15:38:24.522Z,39.13
2023-03-18T15:41:05.667Z,39.15
2023-03-18T15:43:55.501Z,39.09
2023-03-18T15:46:36.600Z,39.69
2023-03-18T15:49:27.506Z,39.77
2023-03-18T15:52:15.503Z,40.02
2023-03-18T15:55:09.507Z,40.48
2023-03-18T15:58:07.538Z,40.71
2023-03-18T16:01:01.564Z,41.15
2023-03-18T16:03:49.512Z,41.46
2023-03-18T16:06:22.906Z,41.69
2023-03-18T16:09:27.506Z,41.88
2023-03-18T16:12:12.570Z,42.17
2023-03-18T16:15:07.572Z,42.35
2023-03-18T16:17:55.526Z,42.33
2023-03-18T16:20:39.497Z,42.45
2023-03-18T16:23:33.510Z,43.00
2023-03-18T16:26:29.499Z,43.09
2023-03-18T16:29:34.588Z,43.69
2023-03-18T16:32:24.568Z,43.64
2023-03-18T16:35:04.565Z,44.03
2023-03-18T16:37:59.512Z,44.05
2023-03-18T16:40:46.554Z,44.29
2023-03-18T16:43:38.702Z,44.72
2023-03-18T16:46:30.633Z,44.84
2023-03-18T16:49:03.693Z,44.94
2023-03-18T16:51:51.518Z,44.89
2023-03-18T16:54:33.607Z,45.77
2023-03-18T16:57:33.522Z,46.65
2023-03-18T17:00:44.605Z,46.66
2023-03-18T17:03:18.660Z,47.22
2023-03-18T17:06:13.518Z,47.48
2023-03-18T17:09:07.521Z,47.53
2023-03-18T17:12:00.579Z,48.03
2023-03-18T17:14:41.683Z,48.04
2023-03-18T17:17:34.563Z,48.41
2023-03-18T17:20:11.462Z,49.63
2023-03-18T17:22:58.574Z,50.64
2023-03-18T17:25:41.597Z,50.86
2023-03-18T17:28:38.557Z,51.40
2023-03-18T17:31:12.696Z,51.76
2023-03-18T17:33:59.588Z,52.26
2023-03-18T17:36:39.588Z,52.41
2023-03-18T17:39:26.644Z,52.95
2023-03-18T17:42:01.349Z,54.32
2023-03-18T17:44:48.608Z,54.32
2023-03-18T17:47:21.684Z,53.97
2023-03-18T17:50:08.565Z,54.12
2023-03-18T17:52:51.402Z,54.60
2023-03-18T17:55:45.583Z,54.98
2023-03-18T17:58:34.607Z,56.06
2023-03-18T18:01:19.751Z,56.57
2023-03-18T18:04:06.556Z,56.34
2023-03-18T18:06:39.677Z,57.40
2023-03-18T18:09:27.584Z,57.44
2023-03-18T18:12:00.698Z,57.46
2023-03-18T18:14:50.569Z,58.37
2023-03-18T18:17:31.578Z,58.00
2023-03-18T18:20:23.583Z,58.63
2023-03-18T18:23:03.121Z,58.44
2023-03-18T18:25:49.583Z,59.55
2023-03-18T18:28:29.365Z,59.64
2023-03-18T18:31:19.768Z,60.67
2023-03-18T18:34:02.619Z,60.77
2023-03-18T18:36:49.595Z,61.50
2023-03-18T18:39:23.833Z,61.31
2023-03-18T18:42:10.599Z,62.29
2023-03-18T18:44:51.584Z,61.99
2023-03-18T18:47:42.615Z,62.72
2023-03-18T18:50:24.202Z,63.28
2023-03-18T18:53:21.578Z,63.43
2023-03-18T18:55:54.737Z,63.08
2023-03-18T18:58:43.646Z,63.77
2023-03-18T19:01:18.708Z,63.91
2023-03-18T19:04:05.693Z,64.28
2023-03-18T19:06:39.709Z,64.44
2023-03-18T19:09:30.611Z,64.70
2023-03-18T19:12:04.693Z,64.82
2023-03-18T19:14:53.594Z,64.85
2023-03-18T19:17:29.677Z,64.31
2023-03-18T19:20:37.590Z,65.58
2023-03-18T19:23:22.630Z,65.61
2023-03-18T19:26:12.625Z,66.16
2023-03-18T19:28:57.570Z,65.93
2023-03-18T19:31:47.657Z,65.87
2023-03-18T19:34:33.628Z,66.32
2023-03-18T19:37:36.625Z,66.53
2023-03-18T19:40:31.642Z,66.94
2023-03-18T19:43:04.726Z,66.98
2023-03-18T19:45:55.656Z,67.19
2023-03-18T19:48:39.659Z,67.32
2023-03-18T19:51:35.627Z,67.51
2023-03-18T19:54:43.633Z,68.78
2023-03-18T19:57:32.641Z,68.38
2023-03-18T20:00:31.605Z,68.50
2023-03-18T20:03:05.692Z,68.25
2023-03-18T20:05:53.640Z,69.31
2023-03-18T20:08:27.689Z,68.83
2023-03-18T20:11:18.678Z,69.14
2023-03-18T20:13:51.913Z,69.48
2023-03-18T20:16:38.670Z,69.83
2023-03-18T20:19:11.693Z,70.04
2023-03-18T20:21:58.633Z,69.96
2023-03-18T20:24:35.724Z,70.55
2023-03-18T20:27:23.647Z,70.85
2023-03-18T20:29:56.783Z,70.90
2023-03-18T20:32:44.677Z,71.44
2023-03-18T20:35:18.648Z,71.41
2023-03-18T20:38:10.668Z,71.90
2023-03-18T20:40:55.676Z,71.70
2023-03-18T20:43:43.649Z,72.06
2023-03-18T20:46:27.719Z,72.22
2023-03-18T20:49:14.640Z,72.27
2023-03-18T20:51:54.635Z,72.43
2023-03-18T20:54:41.701Z,73.93
2023-03-18T20:57:19.241Z,73.51
2023-03-18T21:00:05.647Z,73.52
2023-03-18T21:02:42.640Z,73.29
2023-03-18T21:05:30.978Z,73.42
2023-03-18T21:08:04.741Z,73.65
2023-03-18T21:10:51.702Z,74.32
2023-03-18T21:13:36.144Z,74.17
2023-03-18T21:16:23.677Z,74.21
2023-03-18T21:18:57.721Z,73.92
2023-03-18T21:21:45.671Z,74.88
2023-03-18T21:24:33.769Z,74.98
2023-03-18T21:27:28.630Z,75.18
2023-03-18T21:30:02.994Z,75.61
2023-03-18T21:32:51.929Z,75.74
2023-03-18T21:35:32.206Z,75.58
2023-03-18T21:38:19.645Z,75.89
2023-03-18T21:40:53.133Z,75.91
2023-03-18T21:43:41.681Z,76.53
2023-03-18T21:46:19.836Z,76.52
2023-03-18T21:49:06.639Z,76.95
2023-03-18T21:51:40.502Z,76.46
2023-03-18T21:54:28.650Z,76.73
2023-03-18T21:57:01.785Z,76.70
2023-03-18T21:59:48.693Z,76.99
2023-03-18T22:02:30.787Z,77.41
2023-03-18T22:05:24.717Z,77.63
2023-03-18T22:08:05.709Z,77.38
2023-03-18T22:10:53.732Z,77.38
2023-03-18T22:13:33.602Z,77.85
2023-03-18T22:16:23.725Z,78.29
2023-03-18T22:18:56.841Z,77.95
2023-03-18T22:21:43.746Z,78.27
2023-03-18T22:24:20.786Z,78.69
2023-03-18T22:27:07.702Z,78.39
2023-03-18T22:29:40.776Z,78.26
2023-03-18T22:32:48.688Z,79.24
2023-03-18T22:35:27.948Z,78.92
2023-03-18T22:38:20.642Z,79.38
2023-03-18T22:41:03.698Z,79.23
2023-03-18T22:43:50.690Z,79.83
2023-03-18T22:46:30.696Z,79.27
2023-03-18T22:49:24.653Z,80.09
2023-03-18T22:52:11.695Z,80.14
2023-03-18T22:54:51.733Z,79.96
2023-03-18T22:57:45.708Z,80.36
2023-03-18T23:00:43.711Z,80.90
2023-03-18T23:03:37.699Z,80.78
2023-03-18T23:06:33.800Z,81.06
2023-03-18T23:09:30.372Z,81.14
2023-03-18T23:12:18.685Z,81.43
2023-03-18T23:14:52.699Z,81.09
2023-03-18T23:17:39.693Z,81.65
2023-03-18T23:20:19.694Z,81.82
2023-03-18T23:23:06.709Z,82.10
2023-03-18T23:25:39.822Z,82.01
2023-03-18T23:28:26.671Z,82.41
2023-03-18T23:30:59.957Z,82.42
2023-03-18T23:33:46.663Z,82.62
2023-03-18T23:36:26.646Z,82.38
2023-03-18T23:39:20.689Z,83.04
2023-03-18T23:42:07.734Z,83.11
2023-03-18T23:44:47.739Z,83.31
2023-03-18T23:47:41.707Z,83.79
2023-03-18T23:50:28.683Z,83.91
2023-03-18T23:53:02.339Z,83.96
2023-03-18T23:55:48.890Z,83.97
2023-03-18T23:58:22.859Z,84.20
